sensor_id;sensor_type;location;lat;lon;timestamp;temperature;humidity
3005;DHT22;1512;51.486;6.610;2022-12-29T00:01:23;11.00;1.00
3005;DHT22;1512;51.486;6.610;2022-12-29T00:05:31;11.10;1.00
3005;DHT22;1512;51.486;6.610;2022-12-29T00:09:40;11.00;1.00
3005;DHT22;1512;51.486;6.610;2022-12-29T00:13:49;11.00;99.90
3005;DHT22;1512;51.486;6.610;2022-12-29T00:18:16;10.80;1.00
3005;DHT22;1512;51.486;6.610;2022-12-29T00:22:25;10.80;1.00
3005;DHT22;1512;51.486;6.610;2022-12-29T00:31:25;10.70;99.90
3005;DHT22;1512;51.486;6.610;2022-12-29T00:35:54;10.70;99.90
3005;DHT22;1512;51.486;6.610;2022-12-29T00:40:22;10.70;99.90
3005;DHT22;1512;51.486;6.610;2022-12-29T00:44:55;10.70;84.30
3005;DHT22;1512;51.486;6.610;2022-12-29T00:49:05;10.70;92.30
3005;DHT22;1512;51.486;6.610;2022-12-29T00:53:32;10.70;56.70
3005;DHT22;1512;51.486;6.610;2022-12-29T00:57:40;10.80;99.20
3005;DHT22;1512;51.486;6.610;2022-12-29T01:01:49;10.80;99.90
3005;DHT22;1512;51.486;6.610;2022-12-29T01:06:03;10.70;99.90
3005;DHT22;1512;51.486;6.610;2022-12-29T01:10:12;10.70;99.90
3005;DHT22;1512;51.486;6.610;2022-12-29T01:14:23;10.60;99.90
3005;DHT22;1512;51.486;6.610;2022-12-29T01:18:32;10.60;99.90
3005;DHT22;1512;51.486;6.610;2022-12-29T01:22:41;10.60;99.90
3005;DHT22;1512;51.486;6.610;2022-12-29T01:26:51;10.70;99.90
3005;DHT22;1512;51.486;6.610;2022-12-29T01:31:01;10.80;99.90
3005;DHT22;1512;51.486;6.610;2022-12-29T01:35:10;11.00;1.00
3005;DHT22;1512;51.486;6.610;2022-12-29T01:39:19;11.00;99.90
3005;DHT22;1512;51.486;6.610;2022-12-29T01:43:53;11.10;1.00
3005;DHT22;1512;51.486;6.610;2022-12-29T01:48:21;11.00;32.30
3005;DHT22;1512;51.486;6.610;2022-12-29T01:52:32;11.10;99.90
3005;DHT22;1512;51.486;6.610;2022-12-29T01:56:42;11.10;1.00
3005;DHT22;1512;51.486;6.610;2022-12-29T02:00:51;11.20;99.90
3005;DHT22;1512;51.486;6.610;2022-12-29T02:05:05;11.20;99.90
3005;DHT22;1512;51.486;6.610;2022-12-29T02:09:11;11.20;1.00
3005;DHT22;1512;51.486;6.610;2022-12-29T02:13:20;11.20;1.00
3005;DHT22;1512;51.486;6.610;2022-12-29T02:31:12;11.30;1.00
3005;DHT22;1512;51.486;6.610;2022-12-29T02:35:38;11.40;1.00
3005;DHT22;1512;51.486;6.610;2022-12-29T02:53:41;11.50;1.00
3005;DHT22;1512;51.486;6.610;2022-12-29T02:58:19;11.50;1.00
3005;DHT22;1512;51.486;6.610;2022-12-29T03:02:33;11.40;1.00
3005;DHT22;1512;51.486;6.610;2022-12-29T03:06:56;11.40;1.00
3005;DHT22;1512;51.486;6.610;2022-12-29T03:11:09;11.40;1.00
3005;DHT22;1512;51.486;6.610;2022-12-29T03:15:23;11.30;1.00
3005;DHT22;1512;51.486;6.610;2022-12-29T03:19:52;11.30;1.00
3005;DHT22;1512;51.486;6.610;2022-12-29T03:24:03;11.30;1.00
3005;DHT22;1512;51.486;6.610;2022-12-29T03:28:20;11.40;1.00
3005;DHT22;1512;51.486;6.610;2022-12-29T03:32:42;11.40;99.90
3005;DHT22;1512;51.486;6.610;2022-12-29T03:36:51;11.20;99.90
3005;DHT22;1512;51.486;6.610;2022-12-29T03:41:00;11.10;1.00
3005;DHT22;1512;51.486;6.610;2022-12-29T03:45:10;11.10;1.00
3005;DHT22;1512;51.486;6.610;2022-12-29T03:49:19;11.10;99.90
3005;DHT22;1512;51.486;6.610;2022-12-29T03:53:27;11.30;99.90
3005;DHT22;1512;51.486;6.610;2022-12-29T03:57:36;11.30;1.00
3005;DHT22;1512;51.486;6.610;2022-12-29T04:01:45;11.10;99.90
3005;DHT22;1512;51.486;6.610;2022-12-29T04:05:54;11.10;99.90
3005;DHT22;1512;51.486;6.610;2022-12-29T04:10:03;11.10;99.90
3005;DHT22;1512;51.486;6.610;2022-12-29T04:14:11;11.10;99.90
3005;DHT22;1512;51.486;6.610;2022-12-29T04:18:20;11.00;99.90
3005;DHT22;1512;51.486;6.610;2022-12-29T04:22:29;11.00;41.60
3005;DHT22;1512;51.486;6.610;2022-12-29T04:26:38;10.90;99.90
3005;DHT22;1512;51.486;6.610;2022-12-29T04:30:47;10.90;1.00
3005;DHT22;1512;51.486;6.610;2022-12-29T04:34:56;10.90;99.90
3005;DHT22;1512;51.486;6.610;2022-12-29T04:39:05;11.00;99.90
3005;DHT22;1512;51.486;6.610;2022-12-29T04:43:14;11.10;99.90
3005;DHT22;1512;51.486;6.610;2022-12-29T04:47:24;11.10;1.00
3005;DHT22;1512;51.486;6.610;2022-12-29T04:51:33;10.70;99.90
3005;DHT22;1512;51.486;6.610;2022-12-29T04:55:42;10.50;99.90
3005;DHT22;1512;51.486;6.610;2022-12-29T04:59:50;10.30;99.90
3005;DHT22;1512;51.486;6.610;2022-12-29T05:03:59;10.20;1.00
3005;DHT22;1512;51.486;6.610;2022-12-29T05:08:07;10.10;1.00
3005;DHT22;1512;51.486;6.610;2022-12-29T05:12:16;10.10;12.80
3005;DHT22;1512;51.486;6.610;2022-12-29T05:16:25;10.10;50.00
3005;DHT22;1512;51.486;6.610;2022-12-29T05:20:34;10.10;90.60
3005;DHT22;1512;51.486;6.610;2022-12-29T05:24:42;10.00;84.60
3005;DHT22;1512;51.486;6.610;2022-12-29T05:28:51;10.00;99.90
3005;DHT22;1512;51.486;6.610;2022-12-29T05:32:59;10.00;97.10
3005;DHT22;1512;51.486;6.610;2022-12-29T05:37:08;9.90;99.90
3005;DHT22;1512;51.486;6.610;2022-12-29T05:41:16;10.00;99.90
3005;DHT22;1512;51.486;6.610;2022-12-29T05:45:25;10.00;4.50
3005;DHT22;1512;51.486;6.610;2022-12-29T05:49:34;10.10;99.90
3005;DHT22;1512;51.486;6.610;2022-12-29T05:53:42;10.10;99.90
3005;DHT22;1512;51.486;6.610;2022-12-29T05:57:51;10.10;99.90
3005;DHT22;1512;51.486;6.610;2022-12-29T06:02:00;10.20;99.90
3005;DHT22;1512;51.486;6.610;2022-12-29T06:06:09;10.40;99.90
3005;DHT22;1512;51.486;6.610;2022-12-29T06:10:18;10.40;99.90
3005;DHT22;1512;51.486;6.610;2022-12-29T06:14:27;10.40;99.90
3005;DHT22;1512;51.486;6.610;2022-12-29T06:18:35;10.40;99.90
3005;DHT22;1512;51.486;6.610;2022-12-29T06:22:44;10.40;99.90
3005;DHT22;1512;51.486;6.610;2022-12-29T06:26:53;10.60;99.90
3005;DHT22;1512;51.486;6.610;2022-12-29T06:31:02;10.40;99.90
3005;DHT22;1512;51.486;6.610;2022-12-29T06:35:11;10.50;99.90
3005;DHT22;1512;51.486;6.610;2022-12-29T06:39:19;10.40;99.90
3005;DHT22;1512;51.486;6.610;2022-12-29T06:43:28;10.40;99.90
3005;DHT22;1512;51.486;6.610;2022-12-29T06:47:38;10.50;99.90
3005;DHT22;1512;51.486;6.610;2022-12-29T06:51:46;10.50;99.90
3005;DHT22;1512;51.486;6.610;2022-12-29T06:55:55;10.40;99.90
3005;DHT22;1512;51.486;6.610;2022-12-29T07:00:06;10.40;99.90
3005;DHT22;1512;51.486;6.610;2022-12-29T07:04:15;10.40;99.90
3005;DHT22;1512;51.486;6.610;2022-12-29T07:08:24;10.40;99.90
3005;DHT22;1512;51.486;6.610;2022-12-29T07:12:33;10.50;99.90
3005;DHT22;1512;51.486;6.610;2022-12-29T07:16:42;10.50;99.90
3005;DHT22;1512;51.486;6.610;2022-12-29T07:20:50;10.40;99.90
3005;DHT22;1512;51.486;6.610;2022-12-29T07:24:59;10.50;99.90
3005;DHT22;1512;51.486;6.610;2022-12-29T07:29:08;10.50;99.90
3005;DHT22;1512;51.486;6.610;2022-12-29T07:33:16;10.40;99.90
3005;DHT22;1512;51.486;6.610;2022-12-29T07:37:44;10.40;99.90
3005;DHT22;1512;51.486;6.610;2022-12-29T07:41:53;10.40;99.90
3005;DHT22;1512;51.486;6.610;2022-12-29T07:46:03;10.40;99.90
3005;DHT22;1512;51.486;6.610;2022-12-29T07:50:12;10.50;99.90
3005;DHT22;1512;51.486;6.610;2022-12-29T07:54:22;10.50;99.90
3005;DHT22;1512;51.486;6.610;2022-12-29T07:58:31;10.60;99.90
3005;DHT22;1512;51.486;6.610;2022-12-29T08:02:41;10.70;99.90
3005;DHT22;1512;51.486;6.610;2022-12-29T08:06:50;10.70;99.90
3005;DHT22;1512;51.486;6.610;2022-12-29T08:10:58;10.70;99.90
3005;DHT22;1512;51.486;6.610;2022-12-29T08:15:08;10.70;99.90
3005;DHT22;1512;51.486;6.610;2022-12-29T08:19:18;10.70;99.90
3005;DHT22;1512;51.486;6.610;2022-12-29T08:23:26;10.60;99.90
3005;DHT22;1512;51.486;6.610;2022-12-29T08:27:35;10.50;99.90
3005;DHT22;1512;51.486;6.610;2022-12-29T08:31:43;10.60;99.90
3005;DHT22;1512;51.486;6.610;2022-12-29T08:35:52;10.60;99.90
3005;DHT22;1512;51.486;6.610;2022-12-29T08:40:01;10.60;99.90
3005;DHT22;1512;51.486;6.610;2022-12-29T08:44:11;10.50;99.90
3005;DHT22;1512;51.486;6.610;2022-12-29T08:48:19;10.40;99.90
3005;DHT22;1512;51.486;6.610;2022-12-29T08:52:29;10.40;99.90
3005;DHT22;1512;51.486;6.610;2022-12-29T08:56:38;10.40;99.90
3005;DHT22;1512;51.486;6.610;2022-12-29T09:00:51;10.60;99.90
3005;DHT22;1512;51.486;6.610;2022-12-29T09:05:19;10.60;99.90
3005;DHT22;1512;51.486;6.610;2022-12-29T09:09:28;10.60;99.90
3005;DHT22;1512;51.486;6.610;2022-12-29T09:13:37;10.80;99.90
3005;DHT22;1512;51.486;6.610;2022-12-29T09:17:45;11.00;99.90
3005;DHT22;1512;51.486;6.610;2022-12-29T09:21:54;11.00;99.90
3005;DHT22;1512;51.486;6.610;2022-12-29T09:26:04;10.90;99.90
3005;DHT22;1512;51.486;6.610;2022-12-29T09:30:13;10.90;99.90
3005;DHT22;1512;51.486;6.610;2022-12-29T09:34:22;10.80;99.90
3005;DHT22;1512;51.486;6.610;2022-12-29T09:38:31;10.80;99.90
3005;DHT22;1512;51.486;6.610;2022-12-29T09:42:45;10.70;99.90
3005;DHT22;1512;51.486;6.610;2022-12-29T09:46:53;10.70;99.90
3005;DHT22;1512;51.486;6.610;2022-12-29T09:51:07;10.80;99.90
3005;DHT22;1512;51.486;6.610;2022-12-29T09:55:21;10.80;99.90
3005;DHT22;1512;51.486;6.610;2022-12-29T09:59:42;10.90;99.90
3005;DHT22;1512;51.486;6.610;2022-12-29T10:03:54;11.00;99.90
3005;DHT22;1512;51.486;6.610;2022-12-29T10:26:27;11.00;99.90
3005;DHT22;1512;51.486;6.610;2022-12-29T10:30:33;11.00;99.90
3005;DHT22;1512;51.486;6.610;2022-12-29T10:34:45;11.10;99.90
3005;DHT22;1512;51.486;6.610;2022-12-29T10:39:04;11.10;99.90
3005;DHT22;1512;51.486;6.610;2022-12-29T10:43:45;11.00;99.90
3005;DHT22;1512;51.486;6.610;2022-12-29T10:47:58;11.10;99.90
3005;DHT22;1512;51.486;6.610;2022-12-29T10:52:07;11.20;99.90
3005;DHT22;1512;51.486;6.610;2022-12-29T11:00:53;11.20;99.90
3005;DHT22;1512;51.486;6.610;2022-12-29T11:05:06;11.20;99.90
3005;DHT22;1512;51.486;6.610;2022-12-29T11:09:24;11.20;99.90
3005;DHT22;1512;51.486;6.610;2022-12-29T11:13:31;11.20;99.90
3005;DHT22;1512;51.486;6.610;2022-12-29T11:17:47;11.30;99.90
3005;DHT22;1512;51.486;6.610;2022-12-29T11:22:44;11.40;99.90
3005;DHT22;1512;51.486;6.610;2022-12-29T11:30:25;11.40;99.90
3005;DHT22;1512;51.486;6.610;2022-12-29T11:34:36;11.40;99.90
3005;DHT22;1512;51.486;6.610;2022-12-29T11:38:49;11.40;99.90
3005;DHT22;1512;51.486;6.610;2022-12-29T11:43:00;11.30;99.90
3005;DHT22;1512;51.486;6.610;2022-12-29T11:47:22;11.20;99.90
3005;DHT22;1512;51.486;6.610;2022-12-29T11:51:38;11.30;99.90
3005;DHT22;1512;51.486;6.610;2022-12-29T11:56:01;11.30;99.90
3005;DHT22;1512;51.486;6.610;2022-12-29T12:00:17;11.30;99.90
3005;DHT22;1512;51.486;6.610;2022-12-29T12:04:30;11.40;99.90
3005;DHT22;1512;51.486;6.610;2022-12-29T12:09:29;11.40;99.90
3005;DHT22;1512;51.486;6.610;2022-12-29T12:14:05;11.40;99.90
3005;DHT22;1512;51.486;6.610;2022-12-29T12:17:56;11.30;99.90
3005;DHT22;1512;51.486;6.610;2022-12-29T12:26:34;11.20;99.90
3005;DHT22;1512;51.486;6.610;2022-12-29T12:30:43;11.20;99.90
3005;DHT22;1512;51.486;6.610;2022-12-29T12:34:51;11.20;99.90
3005;DHT22;1512;51.486;6.610;2022-12-29T12:39:24;11.20;99.90
3005;DHT22;1512;51.486;6.610;2022-12-29T12:43:51;11.20;99.90
3005;DHT22;1512;51.486;6.610;2022-12-29T12:53:06;11.10;99.90
3005;DHT22;1512;51.486;6.610;2022-12-29T13:01:38;11.10;99.90
3005;DHT22;1512;51.486;6.610;2022-12-29T13:19:51;11.40;99.90
3005;DHT22;1512;51.486;6.610;2022-12-29T13:24:16;11.20;99.90
3005;DHT22;1512;51.486;6.610;2022-12-29T13:37:31;11.10;99.90
3005;DHT22;1512;51.486;6.610;2022-12-29T13:41:43;11.00;99.90
3005;DHT22;1512;51.486;6.610;2022-12-29T13:46:40;11.20;99.90
3005;DHT22;1512;51.486;6.610;2022-12-29T13:50:05;11.10;99.90
3005;DHT22;1512;51.486;6.610;2022-12-29T13:54:35;11.00;99.90
3005;DHT22;1512;51.486;6.610;2022-12-29T13:59:21;11.10;99.90
3005;DHT22;1512;51.486;6.610;2022-12-29T14:03:56;10.90;99.90
3005;DHT22;1512;51.486;6.610;2022-12-29T14:08:05;10.90;99.90
3005;DHT22;1512;51.486;6.610;2022-12-29T14:16:40;10.80;99.90
3005;DHT22;1512;51.486;6.610;2022-12-29T14:29:42;10.60;99.90
3005;DHT22;1512;51.486;6.610;2022-12-29T14:38:18;10.50;99.90
3005;DHT22;1512;51.486;6.610;2022-12-29T14:42:29;10.50;99.90
3005;DHT22;1512;51.486;6.610;2022-12-29T14:46:54;10.50;99.90
3005;DHT22;1512;51.486;6.610;2022-12-29T14:50:59;10.60;99.90
3005;DHT22;1512;51.486;6.610;2022-12-29T14:55:29;10.60;99.90
3005;DHT22;1512;51.486;6.610;2022-12-29T14:59:38;10.60;99.90
3005;DHT22;1512;51.486;6.610;2022-12-29T15:03:49;10.70;99.90
3005;DHT22;1512;51.486;6.610;2022-12-29T15:07:59;10.70;99.90
3005;DHT22;1512;51.486;6.610;2022-12-29T15:12:31;10.80;99.90
3005;DHT22;1512;51.486;6.610;2022-12-29T15:16:39;10.70;99.90
3005;DHT22;1512;51.486;6.610;2022-12-29T15:20:53;10.60;99.90
3005;DHT22;1512;51.486;6.610;2022-12-29T15:25:03;10.60;99.90
3005;DHT22;1512;51.486;6.610;2022-12-29T15:33:49;10.50;99.90
3005;DHT22;1512;51.486;6.610;2022-12-29T15:37:58;10.60;99.90
3005;DHT22;1512;51.486;6.610;2022-12-29T15:46:35;10.50;99.90
3005;DHT22;1512;51.486;6.610;2022-12-29T15:50:44;10.40;99.90
3005;DHT22;1512;51.486;6.610;2022-12-29T15:54:54;10.40;99.90
3005;DHT22;1512;51.486;6.610;2022-12-29T15:59:03;10.30;99.90
3005;DHT22;1512;51.486;6.610;2022-12-29T16:03:13;10.40;99.90
3005;DHT22;1512;51.486;6.610;2022-12-29T16:07:26;10.30;99.90
3005;DHT22;1512;51.486;6.610;2022-12-29T16:11:40;10.50;99.90
3005;DHT22;1512;51.486;6.610;2022-12-29T16:15:51;10.40;99.90
3005;DHT22;1512;51.486;6.610;2022-12-29T16:20:03;10.40;99.90
3005;DHT22;1512;51.486;6.610;2022-12-29T16:24:15;10.40;99.90
3005;DHT22;1512;51.486;6.610;2022-12-29T16:28:39;10.20;99.90
3005;DHT22;1512;51.486;6.610;2022-12-29T16:32:47;10.10;99.90
3005;DHT22;1512;51.486;6.610;2022-12-29T16:37:04;9.90;99.90
3005;DHT22;1512;51.486;6.610;2022-12-29T16:41:36;9.80;99.90
3005;DHT22;1512;51.486;6.610;2022-12-29T16:45:36;9.60;99.90
3005;DHT22;1512;51.486;6.610;2022-12-29T16:49:37;9.50;99.90
3005;DHT22;1512;51.486;6.610;2022-12-29T16:53:54;9.20;99.90
3005;DHT22;1512;51.486;6.610;2022-12-29T16:58:03;9.00;99.90
3005;DHT22;1512;51.486;6.610;2022-12-29T17:02:16;8.80;99.90
3005;DHT22;1512;51.486;6.610;2022-12-29T17:06:47;8.80;99.90
3005;DHT22;1512;51.486;6.610;2022-12-29T17:10:56;8.70;99.90
3005;DHT22;1512;51.486;6.610;2022-12-29T17:15:42;8.50;99.90
3005;DHT22;1512;51.486;6.610;2022-12-29T17:19:54;8.60;99.90
3005;DHT22;1512;51.486;6.610;2022-12-29T17:24:04;8.50;99.90
3005;DHT22;1512;51.486;6.610;2022-12-29T17:28:21;8.40;99.90
3005;DHT22;1512;51.486;6.610;2022-12-29T17:32:32;8.40;99.90
3005;DHT22;1512;51.486;6.610;2022-12-29T17:37:00;8.30;99.90
3005;DHT22;1512;51.486;6.610;2022-12-29T17:41:14;8.40;99.90
3005;DHT22;1512;51.486;6.610;2022-12-29T17:45:26;8.30;99.90
3005;DHT22;1512;51.486;6.610;2022-12-29T17:49:35;8.30;99.90
3005;DHT22;1512;51.486;6.610;2022-12-29T17:53:43;8.40;99.90
3005;DHT22;1512;51.486;6.610;2022-12-29T17:57:52;8.20;99.90
3005;DHT22;1512;51.486;6.610;2022-12-29T18:02:02;8.10;99.90
3005;DHT22;1512;51.486;6.610;2022-12-29T18:06:11;8.20;99.90
3005;DHT22;1512;51.486;6.610;2022-12-29T18:10:21;8.10;99.90
3005;DHT22;1512;51.486;6.610;2022-12-29T18:14:50;8.10;99.90
3005;DHT22;1512;51.486;6.610;2022-12-29T18:18:58;8.10;99.90
3005;DHT22;1512;51.486;6.610;2022-12-29T18:23:28;8.10;99.90
3005;DHT22;1512;51.486;6.610;2022-12-29T18:27:21;8.00;99.90
3005;DHT22;1512;51.486;6.610;2022-12-29T18:31:32;8.00;99.90
3005;DHT22;1512;51.486;6.610;2022-12-29T18:35:57;8.00;99.90
3005;DHT22;1512;51.486;6.610;2022-12-29T18:40:25;7.90;99.90
3005;DHT22;1512;51.486;6.610;2022-12-29T18:44:36;7.90;99.90
3005;DHT22;1512;51.486;6.610;2022-12-29T18:48:46;7.80;99.90
3005;DHT22;1512;51.486;6.610;2022-12-29T18:53:15;7.80;99.90
3005;DHT22;1512;51.486;6.610;2022-12-29T18:57:30;7.80;99.90
3005;DHT22;1512;51.486;6.610;2022-12-29T19:01:39;7.80;99.90
3005;DHT22;1512;51.486;6.610;2022-12-29T19:05:48;7.80;99.90
3005;DHT22;1512;51.486;6.610;2022-12-29T19:09:56;7.70;99.90
3005;DHT22;1512;51.486;6.610;2022-12-29T19:14:12;7.80;99.90
3005;DHT22;1512;51.486;6.610;2022-12-29T19:18:19;7.80;99.90
3005;DHT22;1512;51.486;6.610;2022-12-29T19:22:30;7.80;99.90
3005;DHT22;1512;51.486;6.610;2022-12-29T19:26:40;7.80;99.90
3005;DHT22;1512;51.486;6.610;2022-12-29T19:31:09;7.90;99.90
3005;DHT22;1512;51.486;6.610;2022-12-29T19:35:18;7.90;99.90
3005;DHT22;1512;51.486;6.610;2022-12-29T19:39:47;7.90;99.90
3005;DHT22;1512;51.486;6.610;2022-12-29T19:43:55;8.00;99.90
3005;DHT22;1512;51.486;6.610;2022-12-29T19:48:04;8.00;99.90
3005;DHT22;1512;51.486;6.610;2022-12-29T19:52:13;8.00;99.90
3005;DHT22;1512;51.486;6.610;2022-12-29T19:56:21;7.90;99.90
3005;DHT22;1512;51.486;6.610;2022-12-29T20:00:33;7.80;99.90
3005;DHT22;1512;51.486;6.610;2022-12-29T20:04:41;7.90;99.90
3005;DHT22;1512;51.486;6.610;2022-12-29T20:08:51;7.90;99.90
3005;DHT22;1512;51.486;6.610;2022-12-29T20:13:00;7.80;99.90
3005;DHT22;1512;51.486;6.610;2022-12-29T20:17:12;7.80;99.90
3005;DHT22;1512;51.486;6.610;2022-12-29T20:21:23;7.80;99.90
3005;DHT22;1512;51.486;6.610;2022-12-29T20:25:32;7.80;99.90
3005;DHT22;1512;51.486;6.610;2022-12-29T20:29:42;7.80;99.90
3005;DHT22;1512;51.486;6.610;2022-12-29T20:33:52;7.80;99.90
3005;DHT22;1512;51.486;6.610;2022-12-29T20:38:20;7.80;99.90
3005;DHT22;1512;51.486;6.610;2022-12-29T20:42:29;7.70;99.90
3005;DHT22;1512;51.486;6.610;2022-12-29T20:46:38;7.80;99.90
3005;DHT22;1512;51.486;6.610;2022-12-29T20:50:48;7.70;99.90
3005;DHT22;1512;51.486;6.610;2022-12-29T20:54:57;7.80;99.90
3005;DHT22;1512;51.486;6.610;2022-12-29T20:59:07;7.80;99.90
3005;DHT22;1512;51.486;6.610;2022-12-29T21:03:17;7.70;99.90
3005;DHT22;1512;51.486;6.610;2022-12-29T21:07:26;7.70;99.90
3005;DHT22;1512;51.486;6.610;2022-12-29T21:11:35;7.70;99.90
3005;DHT22;1512;51.486;6.610;2022-12-29T21:15:44;7.70;99.90
3005;DHT22;1512;51.486;6.610;2022-12-29T21:19:53;7.70;99.90
3005;DHT22;1512;51.486;6.610;2022-12-29T21:24:02;7.70;99.90
3005;DHT22;1512;51.486;6.610;2022-12-29T21:28:13;7.70;99.90
3005;DHT22;1512;51.486;6.610;2022-12-29T21:32:21;7.70;99.90
3005;DHT22;1512;51.486;6.610;2022-12-29T21:36:30;7.60;99.90
3005;DHT22;1512;51.486;6.610;2022-12-29T21:40:40;7.60;99.90
3005;DHT22;1512;51.486;6.610;2022-12-29T21:44:48;7.60;99.90
3005;DHT22;1512;51.486;6.610;2022-12-29T21:49:20;7.50;99.90
3005;DHT22;1512;51.486;6.610;2022-12-29T21:53:35;7.60;99.90
3005;DHT22;1512;51.486;6.610;2022-12-29T21:57:45;7.60;99.90
3005;DHT22;1512;51.486;6.610;2022-12-29T22:02:25;7.50;99.90
3005;DHT22;1512;51.486;6.610;2022-12-29T22:07:16;7.50;99.90
3005;DHT22;1512;51.486;6.610;2022-12-29T22:16:17;7.40;99.90
3005;DHT22;1512;51.486;6.610;2022-12-29T22:20:29;7.40;99.90
3005;DHT22;1512;51.486;6.610;2022-12-29T22:24:38;7.50;99.90
3005;DHT22;1512;51.486;6.610;2022-12-29T22:29:06;7.50;99.90
3005;DHT22;1512;51.486;6.610;2022-12-29T22:33:15;7.50;99.90
3005;DHT22;1512;51.486;6.610;2022-12-29T22:37:43;7.40;99.90
3005;DHT22;1512;51.486;6.610;2022-12-29T22:41:54;7.40;99.90
3005;DHT22;1512;51.486;6.610;2022-12-29T22:46:03;7.50;99.90
3005;DHT22;1512;51.486;6.610;2022-12-29T22:50:14;7.40;99.90
3005;DHT22;1512;51.486;6.610;2022-12-29T22:54:23;7.40;99.90
3005;DHT22;1512;51.486;6.610;2022-12-29T22:58:32;7.40;99.90
3005;DHT22;1512;51.486;6.610;2022-12-29T23:02:41;7.40;99.90
3005;DHT22;1512;51.486;6.610;2022-12-29T23:06:50;7.40;99.90
3005;DHT22;1512;51.486;6.610;2022-12-29T23:10:58;7.40;99.90
3005;DHT22;1512;51.486;6.610;2022-12-29T23:15:08;7.40;99.90
3005;DHT22;1512;51.486;6.610;2022-12-29T23:19:16;7.50;99.90
3005;DHT22;1512;51.486;6.610;2022-12-29T23:23:25;7.50;99.90
3005;DHT22;1512;51.486;6.610;2022-12-29T23:27:53;7.40;99.90
3005;DHT22;1512;51.486;6.610;2022-12-29T23:32:21;7.40;99.90
3005;DHT22;1512;51.486;6.610;2022-12-29T23:36:31;7.50;99.90
3005;DHT22;1512;51.486;6.610;2022-12-29T23:40:40;7.40;99.90
3005;DHT22;1512;51.486;6.610;2022-12-29T23:44:49;7.30;99.90
3005;DHT22;1512;51.486;6.610;2022-12-29T23:48:58;7.30;99.90
3005;DHT22;1512;51.486;6.610;2022-12-29T23:53:07;7.30;99.90
3005;DHT22;1512;51.486;6.610;2022-12-29T23:57:16;7.30;99.90
